ACA652 MYNN-CYUL
Flight info
| Callsign | ACA652 |
|---|---|
| Flight time | N/A |
| Altitude | 37000 |
| Route | INGRA2 INGRA G437 ELBOW DCT JAZZI/N0438F390 DCT WAALT Q131 EARZZ DCT JAMIE Q133 PBERG CARTR5 |
| Aircraft | B736/M-SDE2E3FGHIRWXY/LB1 |
Departure
| Time | 2026-05-03 22:26 |
|---|---|
| Airport | Lynden Pindling International Airport (MYNN) |
Arrival
| Time | N/A |
|---|---|
| Airport | Montreal / Pierre Elliott Trudeau International Airport (CYUL) |
| Time | Latitude | Longitude | Altitude | Speed | Heading |
|---|---|---|---|---|---|
| 2026-05-03 21:59 | 25.04894 | -77.46772 | 32 ft | 0 kts | 142° |
| 2026-05-03 22:18 | 25.04897 | -77.46774 | 33 ft | 2 kts | 142° |
| 2026-05-03 22:18 | 25.04912 | -77.46786 | 32 ft | 3 kts | 143° |
| 2026-05-03 22:18 | 25.04946 | -77.46810 | 32 ft | 3 kts | 163° |
| 2026-05-03 22:19 | 25.04962 | -77.46812 | 32 ft | 2 kts | 226° |
| 2026-05-03 22:19 | 25.04966 | -77.46804 | 30 ft | 1 kts | 245° |
| 2026-05-03 22:19 | 25.04967 | -77.46803 | 31 ft | 0 kts | 245° |
| 2026-05-03 22:21 | 25.04965 | -77.46807 | 30 ft | 3 kts | 245° |
| 2026-05-03 22:21 | 25.04946 | -77.46854 | 33 ft | 8 kts | 245° |
| 2026-05-03 22:21 | 25.04924 | -77.46905 | 33 ft | 7 kts | 245° |
| 2026-05-03 22:22 | 25.04903 | -77.46956 | 32 ft | 8 kts | 251° |
| 2026-05-03 22:22 | 25.04923 | -77.47023 | 31 ft | 11 kts | 311° |
| 2026-05-03 22:22 | 25.04982 | -77.47088 | 32 ft | 12 kts | 315° |
| 2026-05-03 22:22 | 25.05043 | -77.47155 | 32 ft | 13 kts | 314° |
| 2026-05-03 22:23 | 25.05105 | -77.47225 | 32 ft | 13 kts | 314° |
| 2026-05-03 22:23 | 25.05168 | -77.47293 | 31 ft | 12 kts | 316° |
| 2026-05-03 22:23 | 25.05214 | -77.47371 | 31 ft | 12 kts | 287° |
| 2026-05-03 22:23 | 25.05207 | -77.47462 | 29 ft | 13 kts | 254° |
| 2026-05-03 22:24 | 25.05191 | -77.47525 | 29 ft | 12 kts | 250° |
| 2026-05-03 22:24 | 25.05134 | -77.47519 | 25 ft | 0 kts | 133° |
| 2026-05-03 22:25 | 25.05099 | -77.47479 | 27 ft | 25 kts | 135° |
| 2026-05-03 22:25 | 25.04790 | -77.47126 | 25 ft | 104 kts | 134° |
| 2026-05-03 22:25 | 25.04112 | -77.46369 | 28 ft | 169 kts | 133° |
| 2026-05-03 22:25 | 25.03187 | -77.45366 | 456 ft | 196 kts | 136° |
| 2026-05-03 22:26 | 25.02189 | -77.44298 | 1302 ft | 199 kts | 136° |
| 2026-05-03 22:26 | 25.01240 | -77.43228 | 2292 ft | 197 kts | 136° |
| 2026-05-03 22:26 | 25.00367 | -77.41952 | 2636 ft | 227 kts | 110° |
| 2026-05-03 22:26 | 25.00373 | -77.40167 | 3018 ft | 245 kts | 68° |
| 2026-05-03 22:27 | 25.01337 | -77.38602 | 3682 ft | 250 kts | 47° |